createdAt,value
2023-03-17T00:00:09.891Z,55.66
2023-03-17T00:00:19.900Z,55.54
2023-03-17T00:00:30.096Z,55.54
2023-03-17T00:00:39.891Z,55.56
2023-03-17T00:00:49.938Z,55.56
2023-03-17T00:00:59.998Z,55.66
2023-03-17T00:01:09.873Z,55.74
2023-03-17T00:01:19.975Z,55.74
2023-03-17T00:01:29.909Z,55.74
2023-03-17T00:01:39.894Z,55.85
2023-03-17T00:01:49.869Z,55.87
2023-03-17T00:01:59.903Z,55.87
2023-03-17T00:02:09.938Z,55.66
2023-03-17T00:02:19.929Z,55.74
2023-03-17T00:02:29.935Z,55.85
2023-03-17T00:02:39.925Z,55.74
2023-03-17T00:02:49.983Z,55.64
2023-03-17T00:02:59.916Z,55.85
2023-03-17T00:03:09.954Z,55.85
2023-03-17T00:03:19.892Z,55.77
2023-03-17T00:03:29.958Z,55.74
2023-03-17T00:03:39.917Z,55.66
2023-03-17T00:03:49.931Z,55.74
2023-03-17T00:03:59.905Z,55.77
2023-03-17T00:04:09.863Z,55.66
2023-03-17T00:04:19.870Z,55.66
2023-03-17T00:04:29.856Z,55.69
2023-03-17T00:04:40.073Z,55.66
2023-03-17T00:04:49.893Z,55.66
2023-03-17T00:04:59.855Z,55.77
2023-03-17T00:05:10.596Z,55.74
2023-03-17T00:05:19.981Z,55.77
2023-03-17T00:05:29.843Z,55.87
2023-03-17T00:05:39.873Z,55.77
2023-03-17T00:05:49.853Z,55.77
2023-03-17T00:05:59.867Z,55.77
2023-03-17T00:06:09.875Z,55.74
2023-03-17T00:06:19.845Z,55.74
2023-03-17T00:06:30.658Z,55.85
2023-03-17T00:06:39.873Z,55.87
2023-03-17T00:06:49.841Z,55.85
2023-03-17T00:06:59.904Z,55.87
2023-03-17T00:07:09.907Z,55.87
2023-03-17T00:07:19.911Z,55.85
2023-03-17T00:07:29.856Z,55.87
2023-03-17T00:07:39.977Z,55.98
2023-03-17T00:07:49.829Z,55.87
2023-03-17T00:07:59.857Z,55.85
2023-03-17T00:08:09.876Z,55.77
2023-03-17T00:08:19.890Z,55.77
2023-03-17T00:08:29.832Z,55.74
2023-03-17T00:08:39.856Z,55.77
2023-03-17T00:08:49.837Z,55.85
2023-03-17T00:08:59.854Z,55.77
2023-03-17T00:09:09.903Z,55.77
2023-03-17T00:09:19.973Z,55.66
2023-03-17T00:09:29.955Z,55.77
2023-03-17T00:09:39.831Z,55.66
2023-03-17T00:09:49.857Z,55.66
2023-03-17T00:09:59.873Z,55.74
2023-03-17T00:10:09.853Z,55.64
2023-03-17T00:10:19.833Z,55.66
2023-03-17T00:10:30.142Z,55.46
2023-03-17T00:10:39.856Z,55.43
2023-03-17T00:10:49.864Z,55.56
2023-03-17T00:10:59.864Z,55.66
2023-03-17T00:11:09.845Z,55.54
2023-03-17T00:11:19.845Z,55.54
2023-03-17T00:11:29.899Z,55.30
2023-03-17T00:11:39.817Z,55.33
2023-03-17T00:11:49.863Z,55.30
2023-03-17T00:11:59.858Z,55.43
2023-03-17T00:12:09.843Z,55.46
2023-03-17T00:12:19.836Z,55.54
2023-03-17T00:12:29.841Z,55.54
2023-03-17T00:12:39.817Z,55.54
2023-03-17T00:12:49.853Z,55.62
2023-03-17T00:12:59.837Z,55.46
2023-03-17T00:13:09.822Z,55.54
2023-03-17T00:13:19.846Z,55.56
2023-03-17T00:13:30.600Z,55.66
2023-03-17T00:13:39.810Z,55.54
2023-03-17T00:13:49.856Z,55.54
2023-03-17T00:13:59.811Z,55.54
2023-03-17T00:14:09.835Z,55.64
2023-03-17T00:14:19.929Z,55.66
2023-03-17T00:14:29.806Z,55.64
2023-03-17T00:14:39.809Z,55.56
2023-03-17T00:14:49.864Z,55.54
2023-03-17T00:14:59.900Z,55.56
2023-03-17T00:15:10.610Z,55.56
2023-03-17T00:15:19.804Z,55.54
2023-03-17T00:15:29.831Z,55.64
2023-03-17T00:15:39.927Z,55.56
2023-03-17T00:15:49.833Z,55.66
2023-03-17T00:15:59.893Z,55.74
2023-03-17T00:16:09.900Z,55.85
2023-03-17T00:16:19.956Z,55.74
2023-03-17T00:16:29.832Z,55.64
2023-03-17T00:16:39.854Z,55.77
2023-03-17T00:16:49.859Z,55.74
2023-03-17T00:16:59.819Z,55.77
2023-03-17T00:17:09.835Z,55.74
2023-03-17T00:17:19.793Z,55.66
2023-03-17T00:17:29.817Z,55.66
2023-03-17T00:17:40.578Z,55.66
2023-03-17T00:17:49.910Z,55.56
2023-03-17T00:17:59.833Z,55.66
2023-03-17T00:18:09.817Z,55.66
2023-03-17T00:18:19.813Z,55.54
2023-03-17T00:18:29.814Z,55.66
2023-03-17T00:18:39.846Z,55.64
2023-03-17T00:18:49.806Z,55.64
2023-03-17T00:18:59.829Z,55.66
2023-03-17T00:19:09.810Z,55.77
2023-03-17T00:19:19.797Z,55.77
2023-03-17T00:19:29.941Z,55.85
2023-03-17T00:19:39.858Z,55.77
2023-03-17T00:19:50.654Z,55.87
2023-03-17T00:19:59.791Z,55.74
2023-03-17T00:20:09.835Z,55.87
2023-03-17T00:20:19.917Z,55.77
2023-03-17T00:20:30.967Z,55.77
2023-03-17T00:20:39.802Z,55.85
2023-03-17T00:20:49.792Z,55.87
2023-03-17T00:20:59.799Z,55.95
2023-03-17T00:21:09.804Z,55.98
2023-03-17T00:21:19.801Z,55.87
2023-03-17T00:21:29.917Z,55.77
2023-03-17T00:21:39.789Z,55.87
2023-03-17T00:21:49.921Z,55.74
2023-03-17T00:21:59.785Z,55.74
2023-03-17T00:22:09.771Z,55.77
2023-03-17T00:22:19.786Z,55.77
2023-03-17T00:22:29.782Z,55.66
2023-03-17T00:22:39.812Z,55.77
2023-03-17T00:22:50.006Z,55.56
2023-03-17T00:22:59.769Z,55.43
2023-03-17T00:23:09.785Z,55.54
2023-03-17T00:23:19.812Z,55.54
2023-03-17T00:23:29.785Z,55.64
2023-03-17T00:23:39.845Z,55.74
2023-03-17T00:23:49.790Z,55.66
2023-03-17T00:23:59.857Z,55.64
2023-03-17T00:24:09.811Z,55.66
2023-03-17T00:24:19.773Z,55.77
2023-03-17T00:24:29.797Z,55.74
2023-03-17T00:24:39.784Z,55.87
2023-03-17T00:24:49.822Z,55.77
2023-03-17T00:24:59.770Z,55.64
2023-03-17T00:25:09.782Z,55.56
2023-03-17T00:25:19.866Z,55.56
2023-03-17T00:25:29.760Z,55.54
2023-03-17T00:25:39.809Z,55.54
2023-03-17T00:25:49.829Z,55.66
2023-03-17T00:26:00.689Z,55.56
2023-03-17T00:26:09.769Z,55.43
2023-03-17T00:26:19.800Z,55.54
2023-03-17T00:26:29.850Z,55.54
2023-03-17T00:26:39.767Z,55.56
2023-03-17T00:26:49.774Z,55.64
2023-03-17T00:26:59.899Z,55.54
2023-03-17T00:27:09.767Z,55.54
2023-03-17T00:27:19.752Z,55.54
2023-03-17T00:27:29.771Z,55.64
2023-03-17T00:27:39.761Z,55.66
2023-03-17T00:27:49.760Z,55.64
2023-03-17T00:28:00.597Z,55.64
2023-03-17T00:28:09.822Z,55.77
2023-03-17T00:28:19.756Z,55.66
2023-03-17T00:28:29.768Z,55.66
2023-03-17T00:28:39.778Z,55.77
2023-03-17T00:28:49.755Z,55.77
2023-03-17T00:28:59.779Z,55.77
2023-03-17T00:29:09.805Z,55.87
2023-03-17T00:29:19.766Z,55.87
2023-03-17T00:29:29.793Z,55.98
2023-03-17T00:29:39.817Z,55.98
2023-03-17T00:29:49.854Z,55.87
2023-03-17T00:29:59.756Z,55.87
2023-03-17T00:30:10.583Z,55.87
2023-03-17T00:30:19.862Z,55.74
2023-03-17T00:30:30.182Z,55.87
2023-03-17T00:30:39.741Z,55.87
2023-03-17T00:30:49.755Z,55.74
2023-03-17T00:30:59.790Z,55.87
2023-03-17T00:31:09.812Z,55.87
2023-03-17T00:31:19.932Z,55.85
2023-03-17T00:31:29.883Z,55.98
2023-03-17T00:31:39.846Z,55.98
2023-03-17T00:31:49.766Z,55.95
2023-03-17T00:31:59.759Z,55.98
2023-03-17T00:32:10.608Z,55.98
2023-03-17T00:32:19.785Z,56.08
2023-03-17T00:32:29.803Z,56.16
2023-03-17T00:32:39.820Z,56.08
2023-03-17T00:32:49.863Z,56.08
2023-03-17T00:32:59.743Z,55.98
2023-03-17T00:33:09.754Z,55.98
2023-03-17T00:33:19.746Z,55.98
2023-03-17T00:33:29.730Z,55.98
2023-03-17T00:33:40.586Z,56.08
2023-03-17T00:33:49.761Z,55.98
2023-03-17T00:33:59.740Z,55.98
2023-03-17T00:34:09.736Z,56.08
2023-03-17T00:34:20.624Z,55.98
2023-03-17T00:34:29.720Z,56.08
2023-03-17T00:34:39.727Z,56.08
2023-03-17T00:34:49.777Z,56.08
2023-03-17T00:34:59.719Z,56.08
2023-03-17T00:35:09.754Z,56.08
2023-03-17T00:35:19.743Z,56.05
2023-03-17T00:35:29.776Z,56.05
2023-03-17T00:35:39.840Z,55.98
2023-03-17T00:35:49.790Z,55.98
2023-03-17T00:35:59.770Z,56.08
2023-03-17T00:36:09.881Z,56.08
2023-03-17T00:36:19.807Z,56.05
2023-03-17T00:36:29.776Z,56.16
2023-03-17T00:36:39.761Z,56.18
2023-03-17T00:36:49.718Z,56.29
2023-03-17T00:36:59.725Z,56.18
2023-03-17T00:37:09.762Z,56.05
2023-03-17T00:37:19.719Z,55.98
2023-03-17T00:37:29.709Z,56.00
2023-03-17T00:37:39.777Z,55.98
2023-03-17T00:37:49.713Z,55.87
2023-03-17T00:37:59.763Z,55.98
2023-03-17T00:38:09.769Z,55.98
2023-03-17T00:38:19.715Z,55.98
2023-03-17T00:38:29.821Z,55.98
2023-03-17T00:38:39.728Z,56.08
2023-03-17T00:38:49.771Z,56.18
2023-03-17T00:38:59.748Z,56.18
2023-03-17T00:39:09.763Z,56.05
2023-03-17T00:39:19.854Z,56.18
2023-03-17T00:39:29.699Z,56.08
2023-03-17T00:39:39.704Z,56.08
2023-03-17T00:39:49.730Z,56.08
2023-03-17T00:39:59.723Z,56.08
2023-03-17T00:40:09.701Z,56.18
2023-03-17T00:40:19.720Z,56.21
2023-03-17T00:40:31.237Z,56.29
2023-03-17T00:40:40.609Z,56.18
2023-03-17T00:40:49.746Z,56.08
2023-03-17T00:41:00.584Z,56.18
2023-03-17T00:41:09.702Z,56.08
2023-03-17T00:41:19.695Z,56.08
2023-03-17T00:41:29.761Z,55.98
2023-03-17T00:41:39.708Z,55.98
2023-03-17T00:41:49.753Z,56.08
2023-03-17T00:41:59.737Z,56.08
2023-03-17T00:42:09.702Z,55.98
2023-03-17T00:42:19.734Z,56.10
2023-03-17T00:42:29.730Z,56.08
2023-03-17T00:42:40.594Z,56.08
2023-03-17T00:42:49.692Z,56.08
2023-03-17T00:42:59.689Z,56.18
2023-03-17T00:43:09.714Z,56.26
2023-03-17T00:43:19.714Z,56.18
2023-03-17T00:43:30.711Z,56.18
2023-03-17T00:43:39.713Z,56.08
2023-03-17T00:43:49.721Z,55.98
2023-03-17T00:43:59.698Z,55.98
2023-03-17T00:44:09.729Z,55.98
2023-03-17T00:44:19.705Z,56.08
2023-03-17T00:44:29.956Z,56.16
2023-03-17T00:44:39.726Z,56.18
2023-03-17T00:44:49.775Z,56.18
2023-03-17T00:44:59.697Z,56.05
2023-03-17T00:45:09.690Z,55.85
2023-03-17T00:45:19.675Z,55.87
2023-03-17T00:45:29.697Z,56.00
2023-03-17T00:45:39.715Z,56.08
2023-03-17T00:45:49.674Z,56.18
2023-03-17T00:45:59.775Z,55.98
2023-03-17T00:46:09.727Z,55.87
2023-03-17T00:46:19.710Z,55.87
2023-03-17T00:46:29.763Z,55.98
2023-03-17T00:46:39.753Z,55.87
2023-03-17T00:46:50.673Z,55.77
2023-03-17T00:46:59.880Z,55.77
2023-03-17T00:47:09.853Z,55.74
2023-03-17T00:47:19.676Z,55.87
2023-03-17T00:47:29.667Z,55.98
2023-03-17T00:47:39.842Z,55.87
2023-03-17T00:47:49.678Z,55.87
2023-03-17T00:47:59.726Z,55.87
2023-03-17T00:48:09.699Z,55.87
2023-03-17T00:48:19.700Z,55.87
2023-03-17T00:48:29.660Z,55.87
2023-03-17T00:48:39.748Z,55.98
2023-03-17T00:48:49.792Z,55.98
2023-03-17T00:48:59.769Z,55.98
2023-03-17T00:49:09.705Z,55.98
2023-03-17T00:49:19.681Z,56.08
2023-03-17T00:49:29.679Z,56.08
2023-03-17T00:49:39.662Z,55.98
2023-03-17T00:49:49.689Z,56.08
2023-03-17T00:49:59.690Z,56.08
2023-03-17T00:50:09.667Z,56.05
2023-03-17T00:50:19.678Z,56.10
2023-03-17T00:50:30.060Z,55.98
2023-03-17T00:50:39.667Z,55.87
2023-03-17T00:50:49.696Z,55.74
2023-03-17T00:51:00.598Z,55.87
2023-03-17T00:51:10.594Z,55.77
2023-03-17T00:51:19.679Z,55.77
2023-03-17T00:51:29.651Z,55.87
2023-03-17T00:51:39.669Z,55.87
2023-03-17T00:51:50.744Z,55.87
2023-03-17T00:51:59.650Z,55.77
2023-03-17T00:52:09.765Z,55.77
2023-03-17T00:52:19.712Z,55.87
2023-03-17T00:52:29.660Z,55.87
2023-03-17T00:52:39.686Z,55.77
2023-03-17T00:52:49.657Z,55.66
2023-03-17T00:52:59.723Z,55.66
2023-03-17T00:53:09.755Z,55.77
2023-03-17T00:53:19.667Z,55.77
2023-03-17T00:53:29.651Z,55.66
2023-03-17T00:53:40.629Z,55.56
2023-03-17T00:53:49.664Z,55.56
2023-03-17T00:53:59.654Z,55.46
2023-03-17T00:54:09.683Z,55.46
2023-03-17T00:54:19.684Z,55.46
2023-03-17T00:54:29.647Z,55.46
2023-03-17T00:54:39.637Z,55.46
2023-03-17T00:54:50.641Z,55.56
2023-03-17T00:54:59.664Z,55.54
2023-03-17T00:55:10.758Z,55.56
2023-03-17T00:55:19.697Z,55.46
2023-03-17T00:55:29.657Z,55.46
2023-03-17T00:55:39.659Z,55.56
2023-03-17T00:55:49.632Z,55.46
2023-03-17T00:55:59.655Z,55.46
2023-03-17T00:56:09.662Z,55.33
2023-03-17T00:56:19.741Z,55.43
2023-03-17T00:56:29.686Z,55.46
2023-03-17T00:56:39.642Z,55.56
2023-03-17T00:56:49.682Z,55.56
2023-03-17T00:56:59.667Z,55.66
2023-03-17T00:57:12.746Z,55.66
2023-03-17T00:57:19.860Z,55.66
2023-03-17T00:57:29.676Z,55.46
2023-03-17T00:57:39.665Z,55.46
2023-03-17T00:57:49.635Z,55.35
2023-03-17T00:58:00.622Z,55.25
2023-03-17T00:58:09.631Z,55.33
2023-03-17T00:58:19.643Z,55.33
2023-03-17T00:58:29.632Z,55.35
2023-03-17T00:58:39.618Z,55.46
2023-03-17T00:58:49.656Z,55.33
2023-03-17T00:58:59.672Z,55.46
2023-03-17T00:59:09.673Z,55.46
2023-03-17T00:59:20.713Z,55.43
2023-03-17T00:59:29.836Z,55.56
2023-03-17T00:59:39.621Z,55.46
2023-03-17T00:59:49.617Z,55.46
2023-03-17T00:59:59.632Z,55.35
2023-03-17T01:00:09.627Z,55.46
2023-03-17T01:00:19.665Z,55.46
2023-03-17T01:00:30.114Z,55.56
2023-03-17T01:00:39.650Z,55.43
2023-03-17T01:00:49.783Z,55.46
2023-03-17T01:00:59.646Z,55.35
2023-03-17T01:01:09.698Z,55.43
2023-03-17T01:01:19.668Z,55.46
2023-03-17T01:01:29.816Z,55.54
2023-03-17T01:01:39.689Z,55.46
2023-03-17T01:01:49.695Z,55.35
2023-03-17T01:01:59.729Z,55.56
2023-03-17T01:02:09.764Z,55.66
2023-03-17T01:02:19.710Z,55.66
2023-03-17T01:02:29.774Z,55.69
2023-03-17T01:02:39.606Z,55.66
2023-03-17T01:02:49.652Z,55.74
2023-03-17T01:02:59.612Z,55.87
2023-03-17T01:03:09.665Z,55.87
2023-03-17T01:03:19.671Z,55.87
2023-03-17T01:03:30.681Z,55.98
2023-03-17T01:03:39.656Z,55.87
2023-03-17T01:03:49.601Z,56.08
2023-03-17T01:03:59.928Z,56.08
2023-03-17T01:04:09.632Z,56.00
2023-03-17T01:04:19.593Z,55.79
2023-03-17T01:04:29.624Z,55.87
2023-03-17T01:04:39.602Z,55.87
2023-03-17T01:04:59.474Z,55.66
2023-03-17T01:05:05.995Z,55.56
2023-03-17T01:05:09.692Z,55.56
2023-03-17T01:05:20.624Z,55.46
2023-03-17T01:05:29.628Z,55.49
2023-03-17T01:05:39.871Z,55.35
2023-03-17T01:05:50.741Z,55.33
2023-03-17T01:05:59.642Z,55.35
2023-03-17T01:06:09.629Z,55.35
2023-03-17T01:06:19.691Z,55.38
2023-03-17T01:06:29.650Z,55.35
2023-03-17T01:06:39.676Z,55.35
2023-03-17T01:06:49.620Z,55.33
2023-03-17T01:06:59.632Z,55.35
2023-03-17T01:07:09.593Z,55.35
2023-03-17T01:07:19.611Z,55.35
2023-03-17T01:07:30.140Z,55.46
2023-03-17T01:07:40.090Z,55.46
2023-03-17T01:07:49.611Z,55.43
2023-03-17T01:07:59.585Z,55.46
2023-03-17T01:08:09.581Z,55.35
2023-03-17T01:08:19.622Z,55.35
2023-03-17T01:08:29.651Z,55.46
2023-03-17T01:08:39.583Z,55.46
2023-03-17T01:08:49.705Z,55.35
2023-03-17T01:08:59.610Z,55.35
2023-03-17T01:09:09.594Z,55.46
2023-03-17T01:09:19.606Z,55.49
2023-03-17T01:09:29.643Z,55.46
2023-03-17T01:09:40.201Z,55.43
2023-03-17T01:09:49.720Z,55.46
2023-03-17T01:09:59.574Z,55.46
2023-03-17T01:10:09.601Z,55.46
2023-03-17T01:10:19.577Z,55.56
2023-03-17T01:10:29.914Z,55.46
2023-03-17T01:10:39.588Z,55.46
2023-03-17T01:10:49.605Z,55.49
2023-03-17T01:10:59.581Z,55.56
2023-03-17T01:11:09.589Z,55.54
2023-03-17T01:11:19.584Z,55.56
2023-03-17T01:11:29.574Z,55.56
2023-03-17T01:11:39.603Z,55.46
2023-03-17T01:11:50.244Z,55.35
2023-03-17T01:11:59.749Z,55.35
2023-03-17T01:12:09.589Z,55.38
2023-03-17T01:12:19.601Z,55.46
2023-03-17T01:12:29.569Z,55.46
2023-03-17T01:12:39.560Z,55.46
2023-03-17T01:12:49.594Z,55.56
2023-03-17T01:12:59.589Z,55.56
2023-03-17T01:13:09.569Z,55.46
2023-03-17T01:13:19.584Z,55.35
2023-03-17T01:13:29.597Z,55.49
2023-03-17T01:13:39.725Z,55.46
2023-03-17T01:13:49.672Z,55.28
2023-03-17T01:13:59.717Z,55.35
2023-03-17T01:14:09.556Z,55.28
2023-03-17T01:14:19.561Z,55.15
2023-03-17T01:14:29.612Z,55.25
2023-03-17T01:14:39.625Z,55.15
2023-03-17T01:14:49.557Z,55.25
2023-03-17T01:14:59.589Z,55.35
2023-03-17T01:15:09.589Z,55.28
2023-03-17T01:15:20.085Z,55.35
2023-03-17T01:15:29.568Z,55.25
2023-03-17T01:15:39.578Z,55.25
2023-03-17T01:15:49.574Z,55.35
2023-03-17T01:16:00.187Z,55.25
2023-03-17T01:16:09.609Z,55.25
2023-03-17T01:16:19.606Z,55.15
2023-03-17T01:16:29.783Z,55.15
2023-03-17T01:16:39.597Z,55.15
2023-03-17T01:16:49.572Z,55.15
2023-03-17T01:16:59.657Z,55.15
2023-03-17T01:17:09.568Z,55.15
2023-03-17T01:17:19.687Z,55.38
2023-03-17T01:17:29.557Z,55.35
2023-03-17T01:17:39.543Z,55.35
2023-03-17T01:17:49.567Z,55.38
2023-03-17T01:18:00.140Z,55.15
2023-03-17T01:18:10.116Z,55.18
2023-03-17T01:18:19.600Z,55.05
2023-03-17T01:18:29.610Z,55.05
2023-03-17T01:18:39.742Z,55.15
2023-03-17T01:18:49.593Z,55.18
2023-03-17T01:18:59.623Z,55.15
2023-03-17T01:19:09.555Z,55.15
2023-03-17T01:19:19.589Z,55.15
2023-03-17T01:19:29.530Z,55.05
2023-03-17T01:19:39.543Z,55.05
2023-03-17T01:19:49.545Z,55.18
2023-03-17T01:20:00.159Z,55.25
2023-03-17T01:20:10.150Z,55.25
2023-03-17T01:20:19.714Z,55.25
2023-03-17T01:20:29.756Z,55.35
2023-03-17T01:20:39.565Z,55.15
2023-03-17T01:20:49.555Z,55.25
2023-03-17T01:20:59.531Z,55.25
2023-03-17T01:21:09.583Z,55.35
2023-03-17T01:21:19.572Z,55.38
2023-03-17T01:21:29.532Z,55.35
2023-03-17T01:21:39.527Z,55.35
2023-03-17T01:21:49.548Z,55.25
2023-03-17T01:21:59.566Z,55.28
2023-03-17T01:22:09.775Z,55.25
2023-03-17T01:22:19.674Z,55.15
2023-03-17T01:22:29.522Z,55.25
2023-03-17T01:22:39.562Z,55.35
2023-03-17T01:22:50.107Z,55.28
2023-03-17T01:22:59.555Z,55.38
2023-03-17T01:23:09.524Z,55.38
2023-03-17T01:23:19.530Z,55.18
2023-03-17T01:23:29.565Z,55.18
2023-03-17T01:23:39.540Z,55.18
2023-03-17T01:23:49.539Z,55.15
2023-03-17T01:24:00.128Z,55.15
2023-03-17T01:24:09.626Z,55.05
2023-03-17T01:24:20.083Z,55.07
2023-03-17T01:24:29.524Z,55.05
2023-03-17T01:24:39.560Z,54.94
2023-03-17T01:24:49.520Z,54.94
2023-03-17T01:24:59.514Z,55.05
2023-03-17T01:25:09.554Z,55.05
2023-03-17T01:25:19.556Z,55.05
2023-03-17T01:25:29.567Z,54.97
2023-03-17T01:25:39.551Z,54.94
2023-03-17T01:25:49.532Z,54.84
2023-03-17T01:25:59.532Z,54.84
2023-03-17T01:26:09.515Z,54.94
2023-03-17T01:26:20.127Z,54.97
2023-03-17T01:26:30.147Z,55.05
2023-03-17T01:26:39.509Z,54.94
2023-03-17T01:26:49.555Z,54.82
2023-03-17T01:26:59.522Z,54.84
2023-03-17T01:27:09.509Z,54.84
2023-03-17T01:27:19.597Z,54.84
2023-03-17T01:27:29.524Z,54.84
2023-03-17T01:27:39.586Z,54.74
2023-03-17T01:27:49.500Z,54.74
2023-03-17T01:27:59.532Z,54.66
2023-03-17T01:28:09.502Z,54.74
2023-03-17T01:28:19.606Z,54.74
2023-03-17T01:28:30.088Z,54.74
2023-03-17T01:28:40.126Z,54.86
2023-03-17T01:28:49.502Z,54.84
2023-03-17T01:28:59.500Z,54.97
2023-03-17T01:29:09.520Z,54.94
2023-03-17T01:29:19.544Z,54.94
2023-03-17T01:29:29.496Z,54.84
2023-03-17T01:29:39.523Z,54.74
2023-03-17T01:29:49.532Z,54.53
2023-03-17T01:29:59.540Z,54.53
2023-03-17T01:30:09.526Z,54.53
2023-03-17T01:30:19.527Z,54.43
2023-03-17T01:30:29.807Z,54.43
2023-03-17T01:30:39.634Z,54.53
2023-03-17T01:30:49.571Z,54.53
2023-03-17T01:30:59.510Z,54.63
2023-03-17T01:31:09.754Z,54.63
2023-03-17T01:31:19.558Z,54.53
2023-03-17T01:31:29.603Z,54.63
2023-03-17T01:31:39.583Z,54.53
2023-03-17T01:31:49.548Z,54.63
2023-03-17T01:31:59.526Z,54.63
2023-03-17T01:32:09.575Z,54.63
2023-03-17T01:32:19.505Z,54.53
2023-03-17T01:32:29.589Z,54.53
2023-03-17T01:32:40.148Z,54.55
2023-03-17T01:32:49.530Z,54.43
2023-03-17T01:32:59.548Z,54.32
2023-03-17T01:33:09.532Z,54.43
2023-03-17T01:33:19.487Z,54.53
2023-03-17T01:33:29.481Z,54.45
2023-03-17T01:33:39.500Z,54.53
2023-03-17T01:33:49.539Z,54.55
2023-03-17T01:33:59.477Z,54.53
2023-03-17T01:34:09.518Z,54.53
2023-03-17T01:34:19.545Z,54.63
2023-03-17T01:34:29.480Z,54.63
2023-03-17T01:34:39.509Z,54.53
2023-03-17T01:34:49.645Z,54.43
2023-03-17T01:34:59.477Z,54.43
2023-03-17T01:35:09.471Z,54.43
2023-03-17T01:35:19.521Z,54.53
2023-03-17T01:35:29.503Z,54.63
2023-03-17T01:35:39.547Z,54.53
2023-03-17T01:35:49.528Z,54.40
2023-03-17T01:35:59.511Z,54.43
2023-03-17T01:36:09.466Z,54.32
2023-03-17T01:36:19.485Z,54.24
2023-03-17T01:36:29.480Z,54.22
2023-03-17T01:36:40.099Z,54.32
2023-03-17T01:36:50.111Z,54.43
2023-03-17T01:36:59.579Z,54.43
2023-03-17T01:37:09.464Z,54.32
2023-03-17T01:37:19.460Z,54.35
2023-03-17T01:37:30.111Z,54.22
2023-03-17T01:37:39.504Z,54.09
2023-03-17T01:37:49.467Z,54.11
2023-03-17T01:37:59.500Z,54.01
2023-03-17T01:38:09.507Z,54.11
2023-03-17T01:38:19.500Z,53.99
2023-03-17T01:38:29.698Z,54.11
2023-03-17T01:38:39.475Z,54.11
2023-03-17T01:38:50.129Z,54.09
2023-03-17T01:38:59.557Z,54.19
2023-03-17T01:39:09.473Z,54.01
2023-03-17T01:39:19.483Z,54.01
2023-03-17T01:39:29.457Z,54.01
2023-03-17T01:39:39.455Z,54.01
2023-03-17T01:39:49.477Z,54.11
2023-03-17T01:39:59.469Z,54.01
2023-03-17T01:40:09.465Z,54.11
2023-03-17T01:40:19.481Z,54.11
2023-03-17T01:40:29.655Z,54.09
2023-03-17T01:40:39.464Z,54.11
2023-03-17T01:40:49.565Z,54.11
2023-03-17T01:40:59.496Z,54.22
2023-03-17T01:41:09.470Z,54.30
2023-03-17T01:41:19.461Z,54.43
2023-03-17T01:41:29.463Z,54.45
2023-03-17T01:41:39.491Z,54.43
2023-03-17T01:41:49.467Z,54.43
2023-03-17T01:41:59.472Z,54.43
2023-03-17T01:42:09.457Z,54.32
2023-03-17T01:42:19.452Z,54.32
2023-03-17T01:42:29.517Z,54.43
2023-03-17T01:42:39.464Z,54.32
2023-03-17T01:42:49.588Z,54.32
2023-03-17T01:43:00.108Z,54.32
2023-03-17T01:43:09.528Z,54.24
2023-03-17T01:43:19.453Z,54.11
2023-03-17T01:43:29.695Z,54.11
2023-03-17T01:43:39.472Z,54.11
2023-03-17T01:43:49.447Z,54.11
2023-03-17T01:43:59.438Z,54.24
2023-03-17T01:44:09.506Z,54.22
2023-03-17T01:44:19.449Z,54.01
2023-03-17T01:44:29.456Z,54.01
2023-03-17T01:44:39.465Z,54.01
2023-03-17T01:44:49.450Z,54.11
2023-03-17T01:44:59.438Z,54.11
2023-03-17T01:45:09.494Z,54.11
2023-03-17T01:45:19.453Z,54.14
2023-03-17T01:45:29.475Z,54.01
2023-03-17T01:45:39.458Z,53.99
2023-03-17T01:45:49.456Z,53.91
2023-03-17T01:45:59.519Z,53.99
2023-03-17T01:46:09.642Z,54.01
2023-03-17T01:46:19.461Z,54.03
2023-03-17T01:46:29.466Z,54.01
2023-03-17T01:46:39.437Z,53.91
2023-03-17T01:46:49.427Z,53.91
2023-03-17T01:46:59.443Z,53.91
2023-03-17T01:47:09.438Z,53.91
2023-03-17T01:47:19.521Z,53.93
2023-03-17T01:47:29.482Z,53.91
2023-03-17T01:47:39.449Z,53.80
2023-03-17T01:47:49.450Z,53.80
2023-03-17T01:47:59.507Z,53.78
2023-03-17T01:48:09.445Z,53.80
2023-03-17T01:48:19.489Z,53.78
2023-03-17T01:48:29.422Z,53.80
2023-03-17T01:48:39.453Z,53.80
2023-03-17T01:48:49.556Z,53.91
2023-03-17T01:48:59.417Z,53.93
2023-03-17T01:49:09.505Z,53.70
2023-03-17T01:49:20.121Z,53.70
2023-03-17T01:49:29.414Z,53.80
2023-03-17T01:49:39.421Z,53.67
2023-03-17T01:49:49.439Z,53.80
2023-03-17T01:49:59.421Z,53.80
2023-03-17T01:50:09.467Z,53.91
2023-03-17T01:50:19.485Z,53.91
2023-03-17T01:50:29.782Z,53.88
2023-03-17T01:50:39.456Z,53.99
2023-03-17T01:50:49.421Z,54.01
2023-03-17T01:50:59.429Z,54.01
2023-03-17T01:51:09.424Z,54.01
2023-03-17T01:51:19.410Z,54.01
2023-03-17T01:51:29.476Z,54.03
2023-03-17T01:51:39.422Z,54.01
2023-03-17T01:51:49.439Z,53.91
2023-03-17T01:51:59.424Z,53.80
2023-03-17T01:52:09.415Z,53.70
2023-03-17T01:52:19.415Z,53.67
2023-03-17T01:52:29.429Z,53.70
2023-03-17T01:52:39.484Z,53.70
2023-03-17T01:52:49.405Z,53.70
2023-03-17T01:52:59.404Z,53.70
2023-03-17T01:53:09.589Z,53.80
2023-03-17T01:53:19.409Z,53.70
2023-03-17T01:53:30.120Z,53.70
2023-03-17T01:53:39.517Z,53.59
2023-03-17T01:53:49.411Z,53.49
2023-03-17T01:53:59.404Z,53.49
2023-03-17T01:54:09.417Z,53.39
2023-03-17T01:54:19.428Z,53.49
2023-03-17T01:54:29.404Z,53.49
2023-03-17T01:54:39.397Z,53.47
2023-03-17T01:54:49.409Z,53.39
2023-03-17T01:54:59.411Z,53.39
2023-03-17T01:55:10.131Z,53.39
2023-03-17T01:55:19.400Z,53.49
2023-03-17T01:55:29.393Z,53.49
2023-03-17T01:55:40.118Z,53.57
2023-03-17T01:55:49.397Z,53.49
2023-03-17T01:55:59.464Z,53.55
2023-03-17T01:56:09.392Z,53.47
2023-03-17T01:56:20.116Z,53.47
2023-03-17T01:56:29.462Z,53.39
2023-03-17T01:56:39.399Z,53.39
2023-03-17T01:56:49.409Z,53.26
2023-03-17T01:56:59.422Z,53.36
2023-03-17T01:57:09.404Z,53.47
2023-03-17T01:57:19.413Z,53.36
2023-03-17T01:57:29.489Z,53.39
2023-03-17T01:57:39.404Z,53.39
2023-03-17T01:57:49.411Z,53.28
2023-03-17T01:57:59.376Z,53.39
2023-03-17T01:58:09.424Z,53.39
2023-03-17T01:58:19.783Z,53.28
2023-03-17T01:58:29.381Z,53.28
2023-03-17T01:58:39.388Z,53.28
2023-03-17T01:58:49.424Z,53.39
2023-03-17T01:58:59.378Z,53.36
2023-03-17T01:59:09.410Z,53.47
2023-03-17T01:59:19.405Z,53.49
2023-03-17T01:59:29.402Z,53.34
2023-03-17T01:59:39.393Z,53.49
2023-03-17T01:59:49.459Z,53.39
2023-03-17T01:59:59.524Z,53.36
2023-03-17T02:00:09.378Z,53.39
2023-03-17T02:00:19.383Z,53.49
2023-03-17T02:00:29.695Z,53.47
2023-03-17T02:00:39.416Z,53.49
2023-03-17T02:00:49.396Z,53.57
2023-03-17T02:00:59.372Z,53.59
2023-03-17T02:01:09.484Z,53.70
2023-03-17T02:01:19.380Z,53.70
2023-03-17T02:01:29.427Z,53.67
2023-03-17T02:01:39.365Z,53.59
2023-03-17T02:01:49.506Z,53.70
2023-03-17T02:01:59.479Z,53.80
2023-03-17T02:02:09.390Z,53.59
2023-03-17T02:02:19.367Z,53.62
2023-03-17T02:02:29.373Z,53.49
2023-03-17T02:02:39.403Z,53.49
2023-03-17T02:02:49.377Z,53.39
2023-03-17T02:02:59.389Z,53.39
2023-03-17T02:03:09.382Z,53.26
2023-03-17T02:03:19.388Z,53.28
2023-03-17T02:03:29.418Z,53.26
2023-03-17T02:03:39.359Z,53.26
2023-03-17T02:03:49.462Z,53.08
2023-03-17T02:03:59.478Z,53.16
2023-03-17T02:04:09.405Z,53.08
2023-03-17T02:04:19.436Z,53.28
2023-03-17T02:04:29.472Z,53.16
2023-03-17T02:04:39.458Z,53.28
2023-03-17T02:04:49.363Z,53.28
2023-03-17T02:04:59.364Z,53.16
2023-03-17T02:05:09.385Z,53.18
2023-03-17T02:05:19.369Z,53.16
2023-03-17T02:05:29.396Z,53.16
2023-03-17T02:05:39.360Z,53.16
2023-03-17T02:05:49.389Z,53.26
2023-03-17T02:05:59.397Z,53.28
2023-03-17T02:06:09.471Z,53.08
2023-03-17T02:06:19.377Z,52.95
2023-03-17T02:06:29.401Z,52.98
2023-03-17T02:06:55.150Z,53.05
2023-03-17T02:06:58.428Z,53.05
2023-03-17T02:07:00.095Z,53.18
2023-03-17T02:07:09.365Z,53.18
2023-03-17T02:07:19.341Z,53.05
2023-03-17T02:07:29.338Z,52.98
2023-03-17T02:07:39.404Z,52.98
2023-03-17T02:07:49.389Z,52.67
2023-03-17T02:07:59.374Z,52.75
2023-03-17T02:08:09.425Z,52.64
2023-03-17T02:08:19.388Z,52.64
2023-03-17T02:08:29.347Z,52.75
2023-03-17T02:08:39.409Z,52.64
2023-03-17T02:08:49.367Z,52.85